createdAt,value
2023-05-04T00:01:01.449Z,97301.50
2023-05-04T00:03:28.180Z,97234.28
2023-05-04T00:05:54.985Z,97310.38
2023-05-04T00:08:21.560Z,97300.75
2023-05-04T00:10:48.173Z,97310.59
2023-05-04T00:13:14.763Z,97282.19
2023-05-04T00:15:41.569Z,97220.00
2023-05-04T00:18:08.629Z,97304.75
2023-05-04T00:20:35.213Z,97283.00
2023-05-04T00:23:01.793Z,97303.00
2023-05-04T00:25:28.446Z,97215.44
2023-05-04T00:27:55.079Z,97274.81
2023-05-04T00:30:21.654Z,97285.91
2023-05-04T00:32:48.250Z,97176.63
2023-05-04T00:35:14.895Z,97290.88
2023-05-04T00:37:43.722Z,97233.59
2023-05-04T00:40:10.758Z,97298.09
2023-05-04T00:42:37.327Z,97249.72
2023-05-04T00:45:04.078Z,97294.63
2023-05-04T00:47:30.725Z,97212.84
2023-05-04T00:49:57.527Z,97301.44
2023-05-04T00:52:24.589Z,97248.53
2023-05-04T00:54:52.992Z,97234.28
2023-05-04T00:57:19.718Z,97287.72
2023-05-04T00:59:47.835Z,97288.47
2023-05-04T01:02:14.554Z,97236.91
2023-05-04T01:04:41.224Z,97299.69
2023-05-04T01:07:26.869Z,97278.00
2023-05-04T01:10:09.105Z,97176.03
2023-05-04T01:12:41.145Z,97280.03
2023-05-04T01:15:09.714Z,97295.94
2023-05-04T01:17:36.551Z,97271.50
2023-05-04T01:20:04.317Z,97274.59
2023-05-04T01:22:31.281Z,97271.81
2023-05-04T01:24:57.962Z,97261.09
2023-05-04T01:27:39.531Z,97255.25
2023-05-04T01:30:15.261Z,97252.06
2023-05-04T01:32:43.037Z,97141.56
2023-05-04T01:35:11.882Z,97258.34
2023-05-04T01:37:38.563Z,97249.50
2023-05-04T01:40:06.089Z,97257.38
2023-05-04T01:42:32.865Z,97207.81
2023-05-04T01:44:59.457Z,97250.25
2023-05-04T01:47:26.102Z,97252.69
2023-05-04T01:49:52.907Z,97256.47
2023-05-04T01:52:19.511Z,97259.59
2023-05-04T01:54:46.080Z,97252.31
2023-05-04T01:57:12.684Z,97259.34
2023-05-04T01:59:39.230Z,97254.66
2023-05-04T02:02:05.814Z,97240.28
2023-05-04T02:04:32.494Z,97232.03
2023-05-04T02:06:59.088Z,97263.91
2023-05-04T02:09:26.212Z,97271.91
2023-05-04T02:11:52.875Z,97246.50
2023-05-04T02:14:19.433Z,97254.22
2023-05-04T02:16:46.034Z,97265.72
2023-05-04T02:19:12.684Z,97247.47
2023-05-04T02:21:42.129Z,97253.56
2023-05-04T02:24:08.725Z,97229.72
2023-05-04T02:26:36.329Z,97222.59
2023-05-04T02:29:03.829Z,97245.69
2023-05-04T02:31:30.515Z,97251.25
2023-05-04T02:33:57.162Z,97234.75
2023-05-04T02:36:23.741Z,97245.66
2023-05-04T02:38:51.448Z,97237.00
2023-05-04T02:41:18.051Z,97222.34
2023-05-04T02:43:44.615Z,97246.81
2023-05-04T02:46:11.292Z,97244.53
2023-05-04T02:48:37.991Z,97238.34
2023-05-04T02:51:06.353Z,97247.50
2023-05-04T02:53:32.943Z,97240.34
2023-05-04T02:55:59.596Z,97206.59
2023-05-04T02:58:26.368Z,97270.00
2023-05-04T03:00:56.244Z,97282.16
2023-05-04T03:03:22.860Z,97280.41
2023-05-04T03:05:49.420Z,97272.47
2023-05-04T03:08:16.156Z,97234.13
2023-05-04T03:10:42.682Z,97284.03
2023-05-04T03:13:09.325Z,97282.38
2023-05-04T03:15:35.971Z,97284.97
2023-05-04T03:18:02.677Z,97143.97
2023-05-04T03:20:29.330Z,97296.50
2023-05-04T03:22:55.962Z,97212.81
2023-05-04T03:25:22.508Z,97235.59
2023-05-04T03:27:49.081Z,97289.66
2023-05-04T03:30:15.778Z,97277.66
2023-05-04T03:32:42.445Z,97307.56
2023-05-04T03:35:09.372Z,97310.13
2023-05-04T03:37:36.078Z,97219.03
2023-05-04T03:40:03.405Z,97243.81
2023-05-04T03:42:30.188Z,97309.66
2023-05-04T03:44:56.830Z,97319.28
2023-05-04T03:47:23.454Z,97319.41
2023-05-04T03:49:50.034Z,97251.38
2023-05-04T03:52:16.594Z,97240.25
2023-05-04T03:54:43.197Z,97325.06
2023-05-04T03:57:09.816Z,97321.97
2023-05-04T03:59:36.610Z,97271.69
2023-05-04T04:02:03.282Z,97160.41
2023-05-04T04:04:30.026Z,97308.75
2023-05-04T04:06:56.688Z,97329.28
2023-05-04T04:09:23.284Z,97332.25
2023-05-04T04:11:49.844Z,97330.56
2023-05-04T04:14:16.391Z,97290.31
2023-05-04T04:16:43.180Z,97328.09
2023-05-04T04:19:09.841Z,97226.13
2023-05-04T04:21:36.491Z,97321.22
2023-05-04T04:24:03.250Z,97302.13
2023-05-04T04:26:29.851Z,97003.56
2023-05-04T04:28:56.440Z,97326.09
2023-05-04T04:31:23.042Z,97325.19
2023-05-04T04:33:51.340Z,97319.03
2023-05-04T04:36:18.295Z,97319.19
2023-05-04T04:38:44.976Z,97233.78
2023-05-04T04:41:11.822Z,97321.13
2023-05-04T04:43:38.434Z,97317.50
2023-05-04T04:46:05.330Z,97314.50
2023-05-04T04:48:31.953Z,97313.09
2023-05-04T04:50:59.048Z,97318.81
2023-05-04T04:53:25.887Z,97320.47
2023-05-04T04:55:52.771Z,97320.41
2023-05-04T04:58:19.435Z,97298.81
2023-05-04T05:00:47.561Z,97322.94
2023-05-04T05:03:14.276Z,97392.28
2023-05-04T05:05:40.829Z,97324.69
2023-05-04T05:08:07.624Z,97326.31
2023-05-04T05:10:34.178Z,97328.84
2023-05-04T05:13:01.535Z,97257.13
2023-05-04T05:15:28.175Z,97329.44
2023-05-04T05:17:54.834Z,97335.00
2023-05-04T05:20:21.601Z,97333.97
2023-05-04T05:22:48.242Z,97337.94
2023-05-04T05:25:14.909Z,97320.19
2023-05-04T05:27:41.463Z,97342.31
2023-05-04T05:30:08.383Z,97304.69
2023-05-04T05:32:35.126Z,97343.34
2023-05-04T05:35:01.827Z,97349.63
2023-05-04T05:37:28.538Z,97289.94
2023-05-04T05:39:55.087Z,97342.13
2023-05-04T05:42:21.678Z,97270.63
2023-05-04T05:44:48.336Z,97264.22
2023-05-04T05:47:16.121Z,96914.66
2023-05-04T05:49:44.781Z,97351.75
2023-05-04T05:52:14.047Z,97338.75
2023-05-04T05:54:41.346Z,97233.56
2023-05-04T05:57:07.964Z,97348.50
2023-05-04T05:59:34.617Z,97360.63
2023-05-04T06:02:01.264Z,97355.81
2023-05-04T06:04:27.939Z,97254.66
2023-05-04T06:06:54.590Z,97341.19
2023-05-04T06:09:21.180Z,97334.31
2023-05-04T06:11:47.768Z,97335.22
2023-05-04T06:14:14.329Z,97236.06
2023-05-04T06:16:41.123Z,97326.50
2023-05-04T06:19:08.105Z,97194.41
2023-05-04T06:21:34.691Z,97349.84
2023-05-04T06:24:01.322Z,97319.50
2023-05-04T06:26:28.326Z,97353.13
2023-05-04T06:28:55.113Z,97352.56
2023-05-04T06:31:21.779Z,97264.03
2023-05-04T06:33:48.587Z,97353.22
2023-05-04T06:36:15.193Z,97108.22
2023-05-04T06:38:41.804Z,97358.59
2023-05-04T06:41:08.463Z,97355.13
2023-05-04T06:43:35.110Z,97309.09
2023-05-04T06:46:03.192Z,97313.69
2023-05-04T06:48:30.566Z,97261.88
2023-05-04T06:50:57.354Z,97272.78
2023-05-04T06:53:25.086Z,97101.94
2023-05-04T06:55:51.680Z,97218.09
2023-05-04T06:58:22.070Z,97352.19
2023-05-04T07:00:48.844Z,97288.66
2023-05-04T07:03:15.528Z,97358.53
2023-05-04T07:05:42.257Z,97220.25
2023-05-04T07:08:09.842Z,97283.91
2023-05-04T07:10:36.435Z,97355.38
2023-05-04T07:13:03.619Z,97263.41
2023-05-04T07:15:30.310Z,97351.91
2023-05-04T07:17:57.066Z,97354.63
2023-05-04T07:20:26.024Z,97355.38
2023-05-04T07:22:56.533Z,97284.47
2023-05-04T07:25:27.166Z,97345.22
2023-05-04T07:27:54.421Z,97361.97
2023-05-04T07:30:21.778Z,97367.22
2023-05-04T07:32:48.707Z,97311.47
2023-05-04T07:35:15.491Z,97335.75
2023-05-04T07:37:42.156Z,97180.66
2023-05-04T07:40:09.638Z,97373.84
2023-05-04T07:42:36.450Z,97335.88
2023-05-04T07:45:03.630Z,97374.34
2023-05-04T07:47:30.353Z,97142.91
2023-05-04T07:49:57.053Z,97312.47
2023-05-04T07:52:23.702Z,97302.41
2023-05-04T07:54:54.153Z,97230.81
2023-05-04T07:57:21.855Z,97296.09
2023-05-04T07:59:48.821Z,97374.13
2023-05-04T08:02:15.914Z,97381.44
2023-05-04T08:04:42.587Z,97227.22
2023-05-04T08:07:09.213Z,97380.13
2023-05-04T08:09:35.925Z,97375.22
2023-05-04T08:12:04.390Z,97300.75
2023-05-04T08:14:31.073Z,97355.44
2023-05-04T08:16:57.698Z,97231.88
2023-05-04T08:19:24.589Z,97391.72
2023-05-04T08:21:51.289Z,97073.16
2023-05-04T08:24:18.585Z,97315.13
2023-05-04T08:26:55.685Z,97365.03
2023-05-04T08:29:31.946Z,97376.22
2023-05-04T08:31:59.134Z,97299.81
2023-05-04T08:34:27.152Z,97364.63
2023-05-04T08:36:53.783Z,97295.09
2023-05-04T08:39:20.422Z,97363.38
2023-05-04T08:41:47.047Z,97341.72
2023-05-04T08:44:13.799Z,97276.66
2023-05-04T08:46:41.102Z,97363.09
2023-05-04T08:49:07.948Z,97257.00
2023-05-04T08:51:37.053Z,97260.28
2023-05-04T08:54:09.331Z,97364.06
2023-05-04T08:56:36.673Z,97362.63
2023-05-04T08:59:03.978Z,97348.19
2023-05-04T09:01:32.723Z,97289.50
2023-05-04T09:04:02.721Z,97371.19
2023-05-04T09:06:29.802Z,97304.53
2023-05-04T09:08:56.486Z,97357.91
2023-05-04T09:11:23.383Z,97292.34
2023-05-04T09:13:50.029Z,97349.66
2023-05-04T09:16:17.161Z,97338.00
2023-05-04T09:18:44.779Z,97348.19
2023-05-04T09:21:12.119Z,97342.72
2023-05-04T09:23:49.280Z,97329.13
2023-05-04T09:26:26.481Z,97346.22
2023-05-04T09:28:53.135Z,97339.50
2023-05-04T09:31:20.058Z,97243.44
2023-05-04T09:33:46.715Z,97322.72
2023-05-04T09:36:15.705Z,97315.22
2023-05-04T09:38:42.525Z,97316.50
2023-05-04T09:41:09.617Z,97313.66
2023-05-04T09:43:41.766Z,97314.03
2023-05-04T09:46:19.438Z,97191.97
2023-05-04T09:48:53.626Z,97279.41
2023-05-04T09:51:22.553Z,97314.59
2023-05-04T09:53:50.478Z,97313.34
2023-05-04T09:56:32.323Z,97305.84
2023-05-04T09:58:59.822Z,97304.91
2023-05-04T10:01:29.878Z,97309.97
2023-05-04T10:03:56.940Z,97304.41
2023-05-04T10:06:24.700Z,97295.13
2023-05-04T10:08:52.153Z,97289.31
2023-05-04T10:11:20.267Z,97277.59
2023-05-04T10:13:49.717Z,97302.34
2023-05-04T10:16:41.665Z,97282.31
2023-05-04T10:19:24.734Z,97235.69
2023-05-04T10:22:13.338Z,97306.84
2023-05-04T10:24:57.299Z,97294.94
2023-05-04T10:27:46.650Z,97294.66
2023-05-04T10:30:16.690Z,97249.28
2023-05-04T10:32:43.531Z,97167.06
2023-05-04T10:35:10.838Z,97285.16
2023-05-04T10:37:37.949Z,97282.25
2023-05-04T10:40:07.783Z,97259.06
2023-05-04T10:42:44.602Z,97277.56
2023-05-04T10:45:13.086Z,97277.06
2023-05-04T10:47:40.785Z,97184.09
2023-05-04T10:50:14.542Z,97198.06
2023-05-04T10:52:49.654Z,97265.72
2023-05-04T10:55:17.286Z,97250.63
2023-05-04T10:57:51.903Z,97257.72
2023-05-04T11:00:19.217Z,97265.41
2023-05-04T11:02:49.714Z,97260.59
2023-05-04T11:05:20.922Z,97256.53
2023-05-04T11:07:50.760Z,97244.88
2023-05-04T11:10:22.379Z,97176.56
2023-05-04T11:12:49.119Z,97234.56
2023-05-04T11:15:15.879Z,97229.50
2023-05-04T11:17:54.792Z,97176.69
2023-05-04T11:20:26.526Z,97240.59
2023-05-04T11:22:54.535Z,97192.00
2023-05-04T11:25:31.238Z,96915.50
2023-05-04T11:27:58.889Z,97206.44
2023-05-04T11:30:35.933Z,97229.66
2023-05-04T11:33:12.471Z,97227.53
2023-05-04T11:35:40.131Z,97179.03
2023-05-04T11:38:07.799Z,97220.31
2023-05-04T11:40:36.287Z,97224.56
2023-05-04T11:43:03.389Z,97221.91
2023-05-04T11:45:35.314Z,97213.75
2023-05-04T11:48:02.613Z,97207.53
2023-05-04T11:50:29.910Z,97206.56
2023-05-04T11:53:13.648Z,97195.47
2023-05-04T11:55:40.490Z,97204.84
2023-05-04T11:58:11.234Z,97178.53
2023-05-04T12:00:38.938Z,97195.63
2023-05-04T12:03:07.696Z,97202.16
2023-05-04T12:05:35.884Z,97195.47
2023-05-04T12:08:03.723Z,97181.41
2023-05-04T12:10:34.897Z,97132.97
2023-05-04T12:13:02.266Z,97190.47
2023-05-04T12:15:34.603Z,96923.88
2023-05-04T12:18:03.114Z,97172.66
2023-05-04T12:20:30.678Z,97182.78
2023-05-04T12:22:58.141Z,97170.81
2023-05-04T12:25:25.230Z,97136.56
2023-05-04T12:27:51.943Z,97174.28
2023-05-04T12:30:18.868Z,97149.97
2023-05-04T12:32:46.098Z,97103.91
2023-05-04T12:35:13.000Z,97176.06
2023-05-04T12:37:39.724Z,97156.13
2023-05-04T12:40:21.011Z,97155.72
2023-05-04T12:42:54.209Z,97167.94
2023-05-04T12:45:22.769Z,97162.25
2023-05-04T12:47:49.530Z,97157.41
2023-05-04T12:50:16.403Z,97163.31
2023-05-04T12:52:43.133Z,97051.31
2023-05-04T12:55:10.023Z,97138.72
2023-05-04T12:57:36.984Z,97138.69
2023-05-04T13:00:07.343Z,97123.16
2023-05-04T13:02:34.180Z,97127.94
2023-05-04T13:05:01.222Z,97091.03
2023-05-04T13:07:27.926Z,97118.16
2023-05-04T13:09:54.717Z,97125.16
2023-05-04T13:12:21.624Z,97086.56
2023-05-04T13:14:48.382Z,97062.13
2023-05-04T13:17:15.317Z,97116.75
2023-05-04T13:19:41.996Z,97086.34
2023-05-04T13:22:08.674Z,97028.63
2023-05-04T13:24:35.302Z,97102.41
2023-05-04T13:27:03.002Z,97076.47
2023-05-04T13:29:29.631Z,97097.72
2023-05-04T13:31:56.587Z,96814.84
2023-05-04T13:34:23.957Z,96837.22
2023-05-04T13:36:50.936Z,97030.56
2023-05-04T13:39:22.680Z,97002.72
2023-05-04T13:41:49.488Z,96953.63
2023-05-04T13:44:16.361Z,97072.31
2023-05-04T13:46:43.165Z,97000.44
2023-05-04T13:49:09.997Z,97072.25
2023-05-04T13:51:37.856Z,97077.31
2023-05-04T13:54:05.601Z,96784.63
2023-05-04T13:56:32.474Z,97029.06
2023-05-04T13:58:59.508Z,97046.56
2023-05-04T14:01:26.361Z,97108.09
2023-05-04T14:03:54.224Z,97087.25
2023-05-04T14:06:21.999Z,97085.97
2023-05-04T14:08:48.652Z,97090.25
2023-05-04T14:11:15.381Z,97089.00
2023-05-04T14:13:42.031Z,96984.25
2023-05-04T14:16:08.801Z,97052.53
2023-05-04T14:18:35.666Z,97097.69
2023-05-04T14:21:02.435Z,97096.63
2023-05-04T14:23:29.230Z,97104.31
2023-05-04T14:25:57.201Z,97101.28
2023-05-04T14:28:24.196Z,97095.78
2023-05-04T14:30:51.273Z,97113.84
2023-05-04T14:33:18.173Z,97111.78
2023-05-04T14:35:48.014Z,97116.50
2023-05-04T14:38:15.497Z,97079.41
2023-05-04T14:40:42.622Z,97115.00
2023-05-04T14:43:09.234Z,97124.59
2023-05-04T14:45:36.078Z,97123.16
2023-05-04T14:48:02.868Z,97104.19
2023-05-04T14:50:29.633Z,97119.50
2023-05-04T14:52:56.305Z,97118.84
2023-05-04T14:55:23.187Z,97112.16
2023-05-04T14:57:49.898Z,97126.44
2023-05-04T15:00:19.783Z,97128.47
2023-05-04T15:02:46.742Z,97136.94
2023-05-04T15:05:13.736Z,97068.94
2023-05-04T15:07:40.712Z,97125.31
2023-05-04T15:10:09.146Z,97140.66
2023-05-04T15:12:37.912Z,97144.00
2023-05-04T15:15:05.133Z,97144.88
2023-05-04T15:17:32.014Z,97130.97
2023-05-04T15:20:01.419Z,97143.34
2023-05-04T15:22:29.340Z,97072.50
2023-05-04T15:24:56.897Z,97142.16
2023-05-04T15:27:23.760Z,97143.78
2023-05-04T15:29:50.510Z,97136.31
2023-05-04T15:32:17.335Z,96995.63
2023-05-04T15:34:50.747Z,97144.19
2023-05-04T15:37:21.003Z,97151.34
2023-05-04T15:39:47.801Z,97147.34
2023-05-04T15:42:17.196Z,97129.66
2023-05-04T15:44:44.017Z,97147.63
2023-05-04T15:47:12.658Z,97150.28
2023-05-04T15:49:39.967Z,97149.06
2023-05-04T15:52:07.799Z,97151.03
2023-05-04T15:54:34.587Z,97148.91
2023-05-04T15:57:05.818Z,97075.66
2023-05-04T15:59:32.573Z,97162.31
2023-05-04T16:01:59.353Z,97144.63
2023-05-04T16:04:27.381Z,96940.00
2023-05-04T16:06:54.195Z,97141.56
2023-05-04T16:09:22.223Z,97074.66
2023-05-04T16:11:49.079Z,97110.22
2023-05-04T16:14:16.428Z,97161.09
2023-05-04T16:16:43.356Z,97160.31
2023-05-04T16:19:11.703Z,97167.06
2023-05-04T16:21:38.860Z,97169.75
2023-05-04T16:24:10.340Z,97166.66
2023-05-04T16:26:39.901Z,97154.16
2023-05-04T16:29:09.795Z,97158.47
2023-05-04T16:31:36.684Z,97159.13
2023-05-04T16:34:03.619Z,97159.00
2023-05-04T16:36:30.567Z,97168.72
2023-05-04T16:38:59.692Z,97177.53
2023-05-04T16:41:28.792Z,97171.16
2023-05-04T16:43:57.404Z,97173.59
2023-05-04T16:46:24.281Z,97132.13
2023-05-04T16:48:52.153Z,97179.19
2023-05-04T16:51:20.573Z,97173.66
2023-05-04T16:53:47.413Z,97175.59
2023-05-04T16:56:19.433Z,97163.19
2023-05-04T16:58:49.149Z,97164.75
2023-05-04T17:01:16.036Z,97110.25
2023-05-04T17:03:43.040Z,97145.91
2023-05-04T17:06:15.922Z,97176.16
2023-05-04T17:08:46.473Z,97190.53
2023-05-04T17:11:14.405Z,97130.72
2023-05-04T17:13:41.279Z,97173.81
2023-05-04T17:16:13.723Z,97164.28
2023-05-04T17:18:42.931Z,97176.28
2023-05-04T17:21:09.791Z,97126.81
2023-05-04T17:23:38.477Z,97169.50
2023-05-04T17:26:05.271Z,97177.09
2023-05-04T17:28:38.046Z,97187.47
2023-05-04T17:31:04.915Z,97187.84
2023-05-04T17:33:38.062Z,97187.84
2023-05-04T17:36:06.276Z,97120.47
2023-05-04T17:38:33.440Z,97200.19
2023-05-04T17:41:00.369Z,97193.84
2023-05-04T17:43:27.160Z,97197.03
2023-05-04T17:45:55.766Z,97183.47
2023-05-04T17:48:24.363Z,97210.59
2023-05-04T17:51:03.035Z,97213.34
2023-05-04T17:53:36.222Z,97219.72
2023-05-04T17:56:04.118Z,97220.56
2023-05-04T17:58:32.920Z,97220.13
2023-05-04T18:01:05.517Z,97176.22
2023-05-04T18:03:32.624Z,97245.63
2023-05-04T18:05:59.608Z,97250.03
2023-05-04T18:08:31.446Z,97251.22
2023-05-04T18:11:00.898Z,97258.38
2023-05-04T18:13:27.726Z,97238.44
2023-05-04T18:15:58.585Z,97268.34
2023-05-04T18:18:25.825Z,97264.75
2023-05-04T18:20:52.705Z,97266.31
2023-05-04T18:23:19.565Z,97253.47
2023-05-04T18:25:55.180Z,97267.84
2023-05-04T18:28:24.817Z,97269.44
2023-05-04T18:30:51.762Z,97278.69
2023-05-04T18:33:21.479Z,97281.19
2023-05-04T18:35:51.005Z,97284.03
2023-05-04T18:38:17.825Z,97277.25
2023-05-04T18:40:44.710Z,97273.25
2023-05-04T18:43:11.558Z,97229.28
2023-05-04T18:45:41.137Z,97257.28
2023-05-04T18:48:10.889Z,97332.13
2023-05-04T18:50:43.521Z,97193.19
2023-05-04T18:53:10.323Z,97291.94
2023-05-04T18:55:39.436Z,97269.94
2023-05-04T18:58:07.320Z,97293.81
2023-05-04T19:00:36.242Z,97297.75
2023-05-04T19:03:03.134Z,97210.53
2023-05-04T19:05:31.002Z,97251.34
2023-05-04T19:08:01.264Z,97300.00
2023-05-04T19:10:31.319Z,97301.56
2023-05-04T19:12:59.474Z,97248.59
2023-05-04T19:15:31.465Z,97257.25
2023-05-04T19:18:00.388Z,97309.72
2023-05-04T19:20:29.652Z,97320.03
2023-05-04T19:22:59.087Z,97315.78
2023-05-04T19:28:08.076Z,97242.22
2023-05-04T19:30:41.746Z,97317.19
2023-05-04T19:33:08.797Z,97319.63
2023-05-04T19:35:36.061Z,97266.91
2023-05-04T19:38:03.160Z,97251.59
2023-05-04T19:40:30.020Z,97273.50
2023-05-04T19:43:00.129Z,97321.84
2023-05-04T19:45:29.383Z,97303.38
2023-05-04T19:47:59.376Z,97328.97
2023-05-04T19:50:28.321Z,97294.91
2023-05-04T19:52:59.468Z,97336.06
2023-05-04T19:55:28.728Z,97290.38
2023-05-04T19:57:58.897Z,97269.50
2023-05-04T20:00:25.925Z,97327.41
2023-05-04T20:02:57.041Z,97293.66
2023-05-04T20:05:27.678Z,97334.66
2023-05-04T20:07:54.552Z,97319.06
2023-05-04T20:10:21.978Z,97332.69
2023-05-04T20:12:51.392Z,97344.63
2023-05-04T20:15:22.532Z,97340.72
2023-05-04T20:17:50.473Z,97338.41
2023-05-04T20:20:20.532Z,97292.06
2023-05-04T20:22:54.608Z,97321.50
2023-05-04T20:25:24.520Z,97210.63
2023-05-04T20:27:55.013Z,97279.50
2023-05-04T20:30:22.096Z,97314.78
2023-05-04T20:32:49.508Z,97330.00
2023-05-04T20:35:22.768Z,97209.72
2023-05-04T20:37:53.765Z,97326.19
2023-05-04T20:40:28.789Z,97288.31
2023-05-04T20:42:58.751Z,97339.47
2023-05-04T20:45:25.707Z,97229.75
2023-05-04T20:47:52.577Z,97332.94
2023-05-04T20:50:23.076Z,97236.25
2023-05-04T20:52:50.149Z,97340.19
2023-05-04T20:55:19.693Z,97333.88
2023-05-04T20:57:50.619Z,97339.47
2023-05-04T21:00:18.438Z,97356.16
2023-05-04T21:02:47.946Z,97335.56
2023-05-04T21:05:14.879Z,97338.75
2023-05-04T21:07:41.722Z,97340.31
2023-05-04T21:10:11.118Z,97336.28
2023-05-04T21:12:38.048Z,97335.44
2023-05-04T21:15:05.802Z,97288.19
2023-05-04T21:17:34.788Z,97284.28
2023-05-04T21:20:01.844Z,97335.44
2023-05-04T21:22:31.228Z,97330.56
2023-05-04T21:24:58.036Z,97338.63
2023-05-04T21:27:27.521Z,97335.38
2023-05-04T21:29:54.265Z,97330.63
2023-05-04T21:32:22.331Z,97243.06
2023-05-04T21:34:55.214Z,97253.03
2023-05-04T21:37:24.549Z,97345.66
2023-05-04T21:39:58.847Z,97312.94
2023-05-04T21:42:25.978Z,97335.38
2023-05-04T21:45:01.335Z,97335.91
2023-05-04T21:47:28.326Z,97334.75
2023-05-04T21:49:55.270Z,97311.44
2023-05-04T21:52:22.251Z,97326.81
2023-05-04T21:54:49.176Z,97321.84
2023-05-04T21:57:20.952Z,97324.97
2023-05-04T21:59:49.809Z,97323.19
2023-05-04T22:02:16.737Z,97326.84
2023-05-04T22:04:44.134Z,97322.94
2023-05-04T22:07:11.167Z,97293.78
2023-05-04T22:09:38.005Z,97323.03
2023-05-04T22:12:05.822Z,97313.41
2023-05-04T22:14:32.561Z,97310.25
2023-05-04T22:16:59.913Z,97279.94
2023-05-04T22:19:26.927Z,97312.72
2023-05-04T22:21:53.704Z,97302.31
2023-05-04T22:24:20.991Z,97313.47
2023-05-04T22:26:47.793Z,97306.34
2023-05-04T22:29:14.526Z,97303.97
2023-05-04T22:31:41.281Z,97302.38
2023-05-04T22:34:08.053Z,97306.41
2023-05-04T22:36:34.903Z,97306.44
2023-05-04T22:39:01.511Z,97302.44
2023-05-04T22:41:28.235Z,97296.09
2023-05-04T22:43:54.984Z,97290.34
2023-05-04T22:46:21.855Z,97289.16
2023-05-04T22:48:48.546Z,97283.09
2023-05-04T22:51:15.863Z,97241.09
2023-05-04T22:53:42.555Z,97283.59
2023-05-04T22:56:09.304Z,97217.69
2023-05-04T22:58:35.877Z,97201.38
2023-05-04T23:01:03.073Z,97273.06
2023-05-04T23:03:29.801Z,97274.31
2023-05-04T23:05:59.922Z,97225.56
2023-05-04T23:08:26.606Z,97258.25
2023-05-04T23:10:53.269Z,97219.25
2023-05-04T23:13:19.886Z,97276.88
2023-05-04T23:15:46.905Z,97265.72
2023-05-04T23:18:13.927Z,97220.13
2023-05-04T23:20:40.646Z,97196.59
2023-05-04T23:23:07.168Z,97255.31
2023-05-04T23:25:33.801Z,97249.03
2023-05-04T23:28:00.392Z,97258.97
2023-05-04T23:30:26.980Z,97255.75
2023-05-04T23:32:53.608Z,97258.13
2023-05-04T23:35:20.484Z,97240.16
2023-05-04T23:37:47.157Z,97256.13
2023-05-04T23:40:13.810Z,97255.34
2023-05-04T23:42:40.467Z,97249.66
2023-05-04T23:45:07.595Z,97212.41
2023-05-04T23:47:34.272Z,97243.94
2023-05-04T23:50:01.178Z,97249.56
2023-05-04T23:52:27.763Z,97257.66
2023-05-04T23:54:54.628Z,97115.75
2023-05-04T23:57:21.216Z,97252.03
2023-05-04T23:59:47.792Z,97173.19
